Time;durP1;ratioP1;P1;durP2;ratioP2;P2;SDS_P1;SDS_P2;PMS_P1;PMS_P2;Temp;Humidity;BMP_temperature;BMP_pressure;BME280_temperature;BME280_humidity;BME280_pressure;Samples;Min_cycle;Max_cycle;Signal;HPM_P1;HPM_P2
2022/01/29 00:00:19;;;;;;;15.68;3.28;;;7.50;99.90;;;;;;4981027;28;20047;-92
2022/01/29 00:02:46;;;;;;;18.70;4.18;;;7.50;99.90;;;;;;4980629;28;20058;-92
2022/01/29 00:05:13;;;;;;;19.42;4.78;;;7.50;99.90;;;;;;4970980;28;20048;-92
2022/01/29 00:07:42;;;;;;;20.88;4.03;;;7.50;99.90;;;;;;4997904;28;20050;-91
2022/01/29 00:10:10;;;;;;;19.58;3.92;;;7.50;99.90;;;;;;4980114;28;20061;-92
2022/01/29 00:12:38;;;;;;;15.48;3.35;;;7.60;99.90;;;;;;4995886;28;20042;-92
2022/01/29 00:15:06;;;;;;;17.15;3.45;;;7.60;99.90;;;;;;4980416;28;20081;-92
2022/01/29 00:17:33;;;;;;;21.45;3.47;;;7.60;99.90;;;;;;4979618;28;20062;-92
2022/01/29 00:20:01;;;;;;;25.33;4.68;;;7.50;99.90;;;;;;4980765;28;20046;-91
2022/01/29 00:22:28;;;;;;;14.07;4.20;;;7.60;99.90;;;;;;4979477;28;20101;-92
2022/01/29 00:24:59;;;;;;;27.42;3.88;;;7.60;99.90;;;;;;4979964;28;20465;-91
2022/01/29 00:27:29;;;;;;;20.38;4.38;;;7.60;99.90;;;;;;4989103;28;20845;-92
2022/01/29 00:29:58;;;;;;;27.92;4.80;;;7.50;99.90;;;;;;4997373;28;20121;-91
2022/01/29 00:32:27;;;;;;;25.52;5.22;;;7.60;99.90;;;;;;4980252;28;20057;-93
2022/01/29 00:34:54;;;;;;;21.23;4.22;;;7.60;99.90;;;;;;4980109;28;20042;-92
2022/01/29 00:37:23;;;;;;;24.27;4.30;;;7.60;99.90;;;;;;4980027;28;20046;-92
2022/01/29 00:39:49;;;;;;;12.38;3.45;;;7.50;99.90;;;;;;4979140;28;20042;-92
2022/01/29 00:42:17;;;;;;;26.35;4.75;;;7.50;99.90;;;;;;4996158;28;20046;-91
2022/01/29 00:44:45;;;;;;;25.15;4.65;;;7.50;99.90;;;;;;4985243;28;20030;-92
2022/01/29 00:47:13;;;;;;;27.50;5.15;;;7.50;99.90;;;;;;4996974;28;20116;-92
2022/01/29 00:49:40;;;;;;;18.98;4.53;;;7.50;99.90;;;;;;4979262;28;20050;-92
2022/01/29 00:52:08;;;;;;;12.77;3.55;;;7.50;99.90;;;;;;4979275;28;20050;-92
2022/01/29 00:54:35;;;;;;;30.75;5.13;;;7.50;99.90;;;;;;4979078;28;20393;-92
2022/01/29 00:57:03;;;;;;;24.13;5.82;;;7.50;99.90;;;;;;4963265;28;20069;-92
2022/01/29 00:59:32;;;;;;;21.88;4.50;;;7.50;99.90;;;;;;4995130;28;20105;-91
2022/01/29 01:01:59;;;;;;;28.40;5.00;;;7.40;99.90;;;;;;4995060;28;20474;-92
2022/01/29 01:04:26;;;;;;;15.48;4.13;;;7.40;99.90;;;;;;4998147;28;20495;-92
2022/01/29 01:06:53;;;;;;;18.80;4.53;;;7.40;99.90;;;;;;4979096;28;20056;-92
2022/01/29 01:09:21;;;;;;;19.08;5.90;;;7.40;99.90;;;;;;4961733;28;20054;-91
2022/01/29 01:11:48;;;;;;;18.55;5.13;;;7.40;99.90;;;;;;4978637;28;20074;-90
2022/01/29 01:14:15;;;;;;;27.83;6.13;;;7.40;99.90;;;;;;4996478;28;20101;-92
2022/01/29 01:16:42;;;;;;;19.85;5.22;;;7.40;99.90;;;;;;4978653;28;20043;-92
2022/01/29 01:19:09;;;;;;;17.02;4.72;;;7.40;99.90;;;;;;4962787;28;20124;-92
2022/01/29 01:21:36;;;;;;;23.20;4.70;;;7.40;99.90;;;;;;4991978;28;20049;-91
2022/01/29 01:24:04;;;;;;;23.88;5.60;;;7.40;99.90;;;;;;5001918;28;20042;-91
2022/01/29 01:26:31;;;;;;;23.70;5.63;;;7.30;99.90;;;;;;5001675;28;20058;-91
2022/01/29 01:28:58;;;;;;;24.10;6.25;;;7.40;99.90;;;;;;5001684;28;20049;-91
2022/01/29 01:31:25;;;;;;;21.67;5.35;;;7.40;99.90;;;;;;5017700;28;20099;-94
2022/01/29 01:33:52;;;;;;;22.35;5.95;;;7.40;99.90;;;;;;5001304;28;20146;-92
2022/01/29 01:36:23;;;;;;;20.98;6.30;;;7.40;99.90;;;;;;5035204;28;20136;-92
2022/01/29 01:39:01;;;;;;;16.20;5.57;;;7.40;99.90;;;;;;5001295;28;20059;-91
2022/01/29 01:41:30;;;;;;;30.17;5.97;;;7.40;99.90;;;;;;5026760;28;20392;-91
2022/01/29 01:44:02;;;;;;;27.48;5.35;;;7.40;99.90;;;;;;5001519;28;20049;-92
2022/01/29 01:46:29;;;;;;;31.83;5.28;;;7.40;99.90;;;;;;5002073;28;20049;-92
2022/01/29 01:48:59;;;;;;;23.75;5.25;;;7.50;99.90;;;;;;5001530;28;20148;-92
2022/01/29 01:51:26;;;;;;;16.15;5.20;;;7.40;99.90;;;;;;5017198;28;20046;-92
2022/01/29 01:53:56;;;;;;;27.50;6.20;;;7.40;99.90;;;;;;5001200;28;20088;-91
2022/01/29 01:56:39;;;;;;;17.25;8.23;;;7.50;99.90;;;;;;5018663;28;20037;-93
2022/01/29 01:59:11;;;;;;;23.25;5.90;;;7.50;99.90;;;;;;5019858;28;20149;-91
2022/01/29 02:01:39;;;;;;;20.33;6.43;;;7.40;99.90;;;;;;5017529;28;20052;-91
2022/01/29 02:04:07;;;;;;;27.02;5.22;;;7.50;99.90;;;;;;5016661;28;20129;-91
2022/01/29 02:06:34;;;;;;;30.15;8.10;;;7.40;99.90;;;;;;4981641;28;20042;-92
2022/01/29 02:09:04;;;;;;;26.75;6.53;;;7.50;99.90;;;;;;4998189;28;20045;-91
2022/01/29 02:11:31;;;;;;;26.95;6.43;;;7.50;99.90;;;;;;4989193;28;20045;-92
2022/01/29 02:14:04;;;;;;;18.98;6.18;;;7.50;99.90;;;;;;5023111;28;20046;-92
2022/01/29 02:16:32;;;;;;;16.58;5.30;;;7.50;99.90;;;;;;4984065;28;20037;-90
2022/01/29 02:18:59;;;;;;;24.33;6.28;;;7.40;99.90;;;;;;4996912;28;20073;-91
2022/01/29 02:21:29;;;;;;;25.30;7.53;;;7.50;99.90;;;;;;4981432;28;20050;-92
2022/01/29 02:23:56;;;;;;;19.33;6.38;;;7.50;99.90;;;;;;4980770;28;20060;-92
2022/01/29 02:26:25;;;;;;;19.40;5.43;;;7.50;99.90;;;;;;4997032;28;20050;-92
2022/01/29 02:28:54;;;;;;;25.30;6.53;;;7.50;99.90;;;;;;4980621;28;20052;-91
2022/01/29 02:31:21;;;;;;;25.60;7.50;;;7.50;99.90;;;;;;4980911;28;20053;-91
2022/01/29 02:33:49;;;;;;;30.00;6.78;;;7.50;99.90;;;;;;4981274;28;20096;-91
2022/01/29 02:36:16;;;;;;;27.67;7.55;;;7.50;99.90;;;;;;4980998;28;20053;-93
2022/01/29 02:38:43;;;;;;;30.20;7.95;;;7.50;99.90;;;;;;4980906;28;20072;-92
2022/01/29 02:41:10;;;;;;;25.20;7.32;;;7.50;99.90;;;;;;4981017;28;20439;-92
2022/01/29 02:43:51;;;;;;;24.08;6.50;;;7.60;99.90;;;;;;5014390;28;20050;-92
2022/01/29 02:46:30;;;;;;;29.92;7.70;;;7.60;99.90;;;;;;4980608;28;20140;-91
2022/01/29 02:48:57;;;;;;;26.48;8.25;;;7.60;99.90;;;;;;4980356;28;20233;-92
2022/01/29 02:51:24;;;;;;;17.00;7.57;;;7.60;99.90;;;;;;4980464;28;20133;-91
2022/01/29 02:53:51;;;;;;;21.50;7.13;;;7.60;99.90;;;;;;4980991;28;20404;-92
2022/01/29 02:56:18;;;;;;;30.20;8.25;;;7.70;99.90;;;;;;4980804;28;20037;-91
2022/01/29 02:58:51;;;;;;;25.33;7.80;;;7.60;99.90;;;;;;4980826;28;20491;-91
2022/01/29 03:01:19;;;;;;;27.17;7.80;;;7.60;99.90;;;;;;4996845;28;20060;-91
2022/01/29 03:03:46;;;;;;;26.75;9.40;;;7.70;99.90;;;;;;4980969;28;20041;-91
2022/01/29 03:06:14;;;;;;;17.63;7.65;;;7.60;99.90;;;;;;4978962;28;20039;-91
2022/01/29 03:08:42;;;;;;;24.75;7.88;;;7.60;99.90;;;;;;4977428;28;20408;-91
2022/01/29 03:11:11;;;;;;;30.15;7.63;;;7.70;99.90;;;;;;4976905;28;20408;-91
2022/01/29 03:16:52;;;;;;;20.27;7.73;;;7.70;99.90;;;;;;4967022;28;20044;-91
2022/01/29 03:19:19;;;;;;;27.15;7.75;;;7.70;99.90;;;;;;4994417;28;20110;-91
2022/01/29 03:21:46;;;;;;;15.43;6.82;;;7.70;99.90;;;;;;4960633;28;20058;-90
2022/01/29 03:24:13;;;;;;;22.30;6.35;;;7.60;99.90;;;;;;4977516;28;20057;-90
2022/01/29 03:26:40;;;;;;;23.27;7.78;;;7.70;99.90;;;;;;4977172;28;20080;-91
2022/01/29 03:29:07;;;;;;;24.15;7.28;;;7.70;99.90;;;;;;4960775;28;20050;-92
2022/01/29 03:31:33;;;;;;;29.08;10.02;;;7.60;99.90;;;;;;4960971;28;20146;-92
2022/01/29 03:34:01;;;;;;;32.20;9.27;;;7.70;99.90;;;;;;4963582;28;20473;-91
2022/01/29 03:36:28;;;;;;;32.60;8.57;;;7.70;99.90;;;;;;4980801;28;20399;-92
2022/01/29 03:38:56;;;;;;;19.10;8.15;;;7.80;99.90;;;;;;4997824;28;20038;-93
2022/01/29 03:41:23;;;;;;;20.65;7.65;;;7.70;99.90;;;;;;4981729;28;20046;-91
2022/01/29 03:43:52;;;;;;;21.65;8.27;;;7.70;99.90;;;;;;4981398;28;20129;-92
2022/01/29 03:46:19;;;;;;;33.08;8.75;;;7.70;99.90;;;;;;4980852;28;20046;-91
2022/01/29 03:48:49;;;;;;;25.08;8.75;;;7.80;99.90;;;;;;4980072;28;20051;-91
2022/01/29 03:51:16;;;;;;;25.80;6.97;;;7.70;99.90;;;;;;4980838;28;20055;-91
2022/01/29 03:53:43;;;;;;;23.20;7.78;;;7.70;99.90;;;;;;4997850;28;20052;-91
2022/01/29 03:56:11;;;;;;;23.42;9.32;;;7.70;99.90;;;;;;4980683;28;20038;-91
2022/01/29 03:58:38;;;;;;;31.33;8.77;;;7.80;99.90;;;;;;4980081;28;20042;-92
2022/01/29 04:01:05;;;;;;;26.98;9.13;;;7.80;99.90;;;;;;4964824;28;20038;-92
2022/01/29 04:03:32;;;;;;;36.47;10.25;;;7.80;99.90;;;;;;4964342;28;20077;-92
2022/01/29 04:05:59;;;;;;;27.63;8.45;;;7.80;99.90;;;;;;4983819;28;20050;-92
2022/01/29 04:08:31;;;;;;;29.00;9.98;;;7.80;99.90;;;;;;4980677;28;20054;-92
2022/01/29 04:10:58;;;;;;;33.00;8.25;;;7.80;99.90;;;;;;4980776;28;20071;-91
2022/01/29 04:13:27;;;;;;;26.63;8.98;;;7.80;99.90;;;;;;4980744;28;20162;-92
2022/01/29 04:15:54;;;;;;;25.98;8.20;;;7.90;99.90;;;;;;4980255;28;20551;-93
2022/01/29 04:18:21;;;;;;;34.70;8.73;;;7.80;99.90;;;;;;4963764;28;20064;-91
2022/01/29 04:20:48;;;;;;;19.42;8.52;;;7.90;99.90;;;;;;4980153;28;20475;-92
2022/01/29 04:23:15;;;;;;;23.15;8.70;;;7.80;99.90;;;;;;4980104;28;20047;-92
2022/01/29 04:25:43;;;;;;;24.35;8.32;;;7.90;99.90;;;;;;4964041;28;20050;-92
2022/01/29 04:28:16;;;;;;;27.95;9.07;;;7.90;99.90;;;;;;4980828;28;20472;-91
2022/01/29 04:30:51;;;;;;;38.97;9.38;;;7.80;99.90;;;;;;4979798;28;20050;-92
2022/01/29 04:35:45;;;;;;;31.60;8.50;;;7.90;99.90;;;;;;4979523;28;20473;-93
2022/01/29 04:38:12;;;;;;;24.70;7.93;;;7.90;99.90;;;;;;4979513;28;20042;-93
2022/01/29 04:40:43;;;;;;;24.85;9.75;;;7.80;99.90;;;;;;4963936;28;20114;-92
2022/01/29 04:43:10;;;;;;;29.88;9.95;;;7.80;99.90;;;;;;4979639;28;20054;-92
2022/01/29 04:45:37;;;;;;;27.52;7.80;;;7.90;99.90;;;;;;4979565;28;20050;-92
2022/01/29 04:48:04;;;;;;;36.67;8.73;;;7.90;99.90;;;;;;4963332;28;20050;-92
2022/01/29 04:50:31;;;;;;;22.67;8.93;;;7.90;99.90;;;;;;4963285;28;20128;-92
2022/01/29 04:52:59;;;;;;;33.83;7.75;;;7.90;99.90;;;;;;4979766;28;20046;-93
2022/01/29 04:55:28;;;;;;;27.02;10.27;;;7.90;99.90;;;;;;4979814;28;20082;-92
2022/01/29 04:57:55;;;;;;;21.27;8.10;;;7.90;99.90;;;;;;4963694;28;20046;-93
2022/01/29 05:00:23;;;;;;;18.95;7.60;;;7.90;99.90;;;;;;4996931;28;20091;-92
2022/01/29 05:02:52;;;;;;;31.83;10.57;;;7.90;99.90;;;;;;4979806;28;20249;-92
2022/01/29 05:05:20;;;;;;;27.52;10.65;;;7.90;99.90;;;;;;4963578;28;20050;-92
2022/01/29 05:07:48;;;;;;;27.73;8.52;;;7.90;99.90;;;;;;4996868;28;20046;-92
2022/01/29 05:10:16;;;;;;;30.95;7.53;;;7.90;99.90;;;;;;4996779;28;20046;-92
2022/01/29 05:15:26;;;;;;;27.65;8.68;;;8.00;99.90;;;;;;4996699;28;20034;-93
2022/01/29 05:28:55;;;;;;;21.17;7.57;;;7.90;99.90;;;;;;4978614;28;20054;-92
2022/01/29 05:31:22;;;;;;;33.38;7.95;;;7.90;99.90;;;;;;4963412;28;20047;-92
2022/01/29 05:33:50;;;;;;;25.42;7.65;;;7.90;99.90;;;;;;4996169;28;20042;-92
2022/01/29 05:36:17;;;;;;;19.88;8.50;;;7.90;99.90;;;;;;4978516;28;20049;-92
2022/01/29 05:38:46;;;;;;;23.17;7.43;;;7.90;99.90;;;;;;4978177;28;20491;-92
2022/01/29 05:41:13;;;;;;;25.65;7.85;;;7.90;99.90;;;;;;4978901;28;20042;-93
2022/01/29 05:43:41;;;;;;;27.02;6.75;;;7.90;99.90;;;;;;4978702;28;20388;-92
2022/01/29 05:46:10;;;;;;;23.35;6.97;;;7.90;99.90;;;;;;4978735;28;20054;-91
2022/01/29 05:48:38;;;;;;;24.80;7.43;;;7.90;99.90;;;;;;4978458;28;20177;-92
2022/01/29 05:51:06;;;;;;;11.77;5.22;;;8.00;99.90;;;;;;4978800;28;20503;-93
2022/01/29 05:53:33;;;;;;;30.60;7.07;;;8.00;99.90;;;;;;4978666;28;20070;-92
2022/01/29 05:56:02;;;;;;;22.25;6.43;;;7.90;99.90;;;;;;4962618;28;20053;-93
2022/01/29 05:58:29;;;;;;;29.25;8.45;;;8.00;99.90;;;;;;4978495;28;20404;-92
2022/01/29 06:00:56;;;;;;;25.83;6.70;;;7.90;99.90;;;;;;4978084;28;20141;-92
2022/01/29 06:03:23;;;;;;;17.65;7.25;;;8.00;99.90;;;;;;4962098;28;20105;-92
2022/01/29 06:05:50;;;;;;;22.15;7.43;;;7.90;99.90;;;;;;4976757;28;20049;-91
2022/01/29 06:08:19;;;;;;;29.17;7.22;;;7.90;99.90;;;;;;4997486;28;20115;-93
2022/01/29 06:10:46;;;;;;;26.70;6.60;;;7.90;99.90;;;;;;4981596;28;20046;-93
2022/01/29 06:13:15;;;;;;;21.85;6.97;;;8.00;99.90;;;;;;4981601;28;20554;-93
2022/01/29 06:15:45;;;;;;;19.48;6.53;;;7.90;99.90;;;;;;4981317;28;20050;-91
2022/01/29 06:18:19;;;;;;;31.40;7.53;;;8.00;99.90;;;;;;4983776;28;20045;-92
2022/01/29 06:20:52;;;;;;;21.70;6.43;;;8.00;99.90;;;;;;5003477;28;20038;-92
2022/01/29 06:23:31;;;;;;;27.98;6.47;;;8.00;99.90;;;;;;4997159;28;20085;-93
2022/01/29 06:26:00;;;;;;;30.55;6.55;;;8.00;99.90;;;;;;4997722;28;20069;-92
2022/01/29 06:28:33;;;;;;;21.65;6.80;;;8.00;99.90;;;;;;4980867;28;20073;-93
2022/01/29 06:31:05;;;;;;;25.40;7.50;;;8.00;99.90;;;;;;4982188;28;20053;-92
2022/01/29 06:33:32;;;;;;;23.52;6.53;;;8.00;99.90;;;;;;4981247;28;20045;-93
2022/01/29 06:35:59;;;;;;;28.73;6.43;;;7.90;99.90;;;;;;4980739;28;20049;-92
2022/01/29 06:38:26;;;;;;;18.95;6.50;;;8.00;99.90;;;;;;4996613;28;20048;-92
2022/01/29 06:45:16;;;;;;;24.05;6.38;;;7.90;99.90;;;;;;5018194;28;20112;-93
2022/01/29 06:51:10;;;;;;;24.83;6.38;;;7.80;99.90;;;;;;5025240;24;20063;-91
2022/01/29 06:53:37;;;;;;;26.23;6.13;;;7.90;99.90;;;;;;4770416;30;20048;-90
2022/01/29 06:56:05;;;;;;;36.95;8.23;;;7.90;99.90;;;;;;4769862;30;20068;-91
2022/01/29 06:59:46;;;;;;;21.75;6.97;;;7.90;99.90;;;;;;4767192;30;20501;-92
2022/01/29 07:02:09;;;;;;;22.08;4.85;;;7.90;99.90;;;;;;4742962;30;20056;-92
2022/01/29 07:09:57;;;;;;;13.63;4.30;;;7.90;99.90;;;;;;4751343;30;20523;-94
2022/01/29 07:13:10;;;;;;;19.52;5.10;;;7.90;99.90;;;;;;4679867;30;20103;-95
2022/01/29 07:23:18;;;;;;;17.25;4.68;;;8.00;99.90;;;;;;4843790;24;20054;-92
2022/01/29 07:25:52;;;;;;;22.95;4.95;;;7.90;99.90;;;;;;4788481;29;20043;-93
2022/01/29 07:29:24;;;;;;;18.67;5.50;;;8.00;99.90;;;;;;4798339;29;20055;-94
2022/01/29 07:31:58;;;;;;;23.80;6.13;;;7.90;99.90;;;;;;4788351;30;20471;-90
2022/01/29 07:34:25;;;;;;;19.20;5.28;;;8.00;99.90;;;;;;4796737;29;20047;-92
2022/01/29 07:36:57;;;;;;;16.42;4.22;;;8.00;99.90;;;;;;4790942;29;20036;-91
2022/01/29 07:39:25;;;;;;;22.27;4.85;;;8.00;99.90;;;;;;4787264;30;20058;-92
2022/01/29 07:41:53;;;;;;;12.07;5.43;;;7.90;99.90;;;;;;4794739;29;20055;-91
2022/01/29 07:44:20;;;;;;;17.05;4.80;;;7.90;99.90;;;;;;4789350;29;20104;-93
2022/01/29 07:46:48;;;;;;;23.55;4.95;;;7.90;99.90;;;;;;4773965;30;20108;-94
2022/01/29 07:49:15;;;;;;;15.27;4.30;;;8.00;99.90;;;;;;4773227;30;20083;-93
2022/01/29 07:51:45;;;;;;;15.02;4.45;;;8.00;99.90;;;;;;4772891;30;20086;-93
2022/01/29 07:54:12;;;;;;;20.98;5.18;;;7.90;99.90;;;;;;4772440;29;20051;-93
2022/01/29 07:56:39;;;;;;;29.80;5.95;;;8.00;99.90;;;;;;4772508;30;20491;-91
2022/01/29 07:59:06;;;;;;;30.25;5.45;;;8.00;99.90;;;;;;4792663;29;20046;-92
2022/01/29 08:02:18;;;;;;;14.13;4.35;;;8.10;99.90;;;;;;4772929;30;20063;-94
2022/01/29 08:05:34;;;;;;;;;;;;;;;;;;;;;
2022/01/29 08:09:00;;;;;;;14.48;4.15;;;8.10;99.90;;;;;;4759701;29;20130;-93
2022/01/29 08:11:27;;;;;;;21.52;3.83;;;8.10;99.90;;;;;;4769301;30;20062;-94
2022/01/29 08:13:57;;;;;;;31.95;5.90;;;8.20;99.90;;;;;;4769316;30;20055;-94
2022/01/29 08:16:30;;;;;;;35.50;4.43;;;8.20;99.90;;;;;;4770149;30;20048;-93
2022/01/29 08:18:57;;;;;;;12.40;4.20;;;8.10;99.90;;;;;;4755753;30;20051;-95
2022/01/29 08:21:50;;;;;;;28.75;4.07;;;8.20;99.90;;;;;;4788607;29;20051;-94
2022/01/29 08:24:59;;;;;;;18.17;4.10;;;8.20;99.90;;;;;;4791715;29;20051;-95
2022/01/29 08:33:02;;;;;;;20.58;3.25;;;8.10;99.90;;;;;;4684398;30;20057;-92
2022/01/29 08:35:35;;;;;;;22.77;3.22;;;8.10;99.90;;;;;;4687977;30;20047;-93
2022/01/29 08:38:04;;;;;;;25.42;4.57;;;8.20;99.90;;;;;;4736226;30;20063;-92
2022/01/29 08:40:43;;;;;;;19.17;3.67;;;8.30;99.90;;;;;;4736247;30;20057;-91
2022/01/29 08:43:50;;;;;;;18.40;3.75;;;8.30;99.90;;;;;;4722334;30;20057;-96
2022/01/29 08:46:32;;;;;;;16.55;4.40;;;8.30;99.90;;;;;;4736354;30;20059;-93
2022/01/29 08:57:03;;;;;;;19.40;5.00;;;8.30;99.90;;;;;;4728735;30;20057;-91
2022/01/29 08:59:30;;;;;;;16.55;4.18;;;8.30;99.90;;;;;;4706345;30;20059;-92
2022/01/29 09:02:00;;;;;;;17.23;3.72;;;8.30;99.90;;;;;;4720543;30;20144;-94
2022/01/29 09:04:32;;;;;;;21.48;4.38;;;8.30;99.90;;;;;;4717882;30;20076;-92
2022/01/29 09:07:02;;;;;;;17.10;3.35;;;8.30;99.90;;;;;;4718344;30;20120;-93
2022/01/29 09:09:29;;;;;;;19.15;2.70;;;8.30;99.90;;;;;;4750282;30;20052;-93
2022/01/29 09:12:01;;;;;;;16.85;2.88;;;8.20;99.90;;;;;;4771490;30;20418;-93
2022/01/29 09:14:28;;;;;;;18.58;3.28;;;8.30;99.90;;;;;;4776697;30;20048;-94
2022/01/29 09:16:55;;;;;;;18.63;3.03;;;8.30;99.90;;;;;;4771636;30;20101;-94
2022/01/29 09:19:25;;;;;;;14.35;3.28;;;8.30;99.90;;;;;;4772421;30;20047;-93
2022/01/29 09:21:56;;;;;;;22.08;4.70;;;8.30;99.90;;;;;;4772781;30;20063;-93
2022/01/29 09:24:22;;;;;;;17.08;3.17;;;8.40;99.90;;;;;;4771765;30;20525;-93
2022/01/29 09:26:54;;;;;;;15.88;2.50;;;8.30;99.90;;;;;;4771401;30;20062;-94
2022/01/29 09:29:21;;;;;;;15.02;3.40;;;8.40;99.90;;;;;;4771653;30;20052;-93
2022/01/29 09:31:48;;;;;;;15.30;2.92;;;8.40;99.90;;;;;;4771526;30;20048;-94
2022/01/29 09:34:15;;;;;;;20.17;3.67;;;8.50;99.90;;;;;;4757782;30;20054;-94
2022/01/29 09:36:45;;;;;;;15.82;3.33;;;8.40;99.90;;;;;;4756575;30;20591;-93
2022/01/29 09:39:14;;;;;;;18.02;3.95;;;8.40;99.90;;;;;;4770864;30;20055;-93
2022/01/29 09:41:45;;;;;;;16.63;3.00;;;8.50;99.90;;;;;;4771466;30;20099;-93
2022/01/29 09:44:13;;;;;;;20.33;4.38;;;8.50;99.90;;;;;;4771319;30;20138;-93
2022/01/29 09:46:44;;;;;;;10.48;2.63;;;8.50;99.90;;;;;;4756502;30;20055;-93
2022/01/29 09:49:14;;;;;;;19.20;3.53;;;8.70;99.90;;;;;;4756347;30;20048;-93
2022/01/29 09:51:42;;;;;;;21.83;2.83;;;8.70;99.90;;;;;;4762990;30;20059;-92
2022/01/29 09:54:10;;;;;;;15.50;2.65;;;8.70;99.90;;;;;;4771315;30;20056;-93
2022/01/29 09:56:37;;;;;;;20.52;3.42;;;8.70;99.90;;;;;;4771010;30;20051;-93
2022/01/29 09:59:04;;;;;;;14.35;2.35;;;8.80;99.90;;;;;;4756948;30;20043;-93
2022/01/29 10:01:34;;;;;;;25.27;2.72;;;8.90;99.90;;;;;;4756627;30;20074;-94
2022/01/29 10:04:05;;;;;;;19.02;3.75;;;8.90;99.90;;;;;;4774112;30;20570;-93
2022/01/29 10:06:38;;;;;;;11.57;2.83;;;9.00;99.90;;;;;;4758374;30;20506;-93
2022/01/29 10:09:11;;;;;;;22.52;2.88;;;9.00;99.90;;;;;;4770986;30;20079;-93
2022/01/29 10:12:10;;;;;;;16.33;3.85;;;9.00;99.90;;;;;;4771727;30;20071;-93
2022/01/29 10:15:25;;;;;;;15.93;3.15;;;9.10;99.90;;;;;;4784816;29;20055;-92
2022/01/29 10:17:54;;;;;;;23.95;3.00;;;9.10;99.90;;;;;;4773087;30;20048;-94
2022/01/29 10:20:45;;;;;;;;;;;;;;;;;;;;;
2022/01/29 10:23:15;;;;;;;14.90;2.03;;;9.10;99.90;;;;;;4771464;30;20055;-94
2022/01/29 10:25:53;;;;;;;13.18;3.05;;;9.20;99.90;;;;;;4771321;30;20151;-94
2022/01/29 10:28:24;;;;;;;20.80;3.08;;;9.20;99.90;;;;;;4756765;30;20051;-93
2022/01/29 10:31:08;;;;;;;19.35;2.58;;;9.20;99.90;;;;;;4756968;30;20056;-94
2022/01/29 10:33:41;;;;;;;20.33;3.80;;;9.20;99.90;;;;;;4760751;30;20035;-93
2022/01/29 10:36:16;;;;;;;11.13;3.20;;;9.20;99.90;;;;;;4773636;29;20138;-92
2022/01/29 10:38:43;;;;;;;15.30;3.00;;;9.20;99.90;;;;;;4769824;30;20058;-91
2022/01/29 10:41:27;;;;;;;13.15;2.80;;;9.10;99.90;;;;;;4770041;30;20552;-91
2022/01/29 10:44:18;;;;;;;18.10;3.70;;;9.20;99.90;;;;;;4769811;30;20055;-92
2022/01/29 10:46:54;;;;;;;18.85;3.08;;;9.20;99.90;;;;;;4769829;30;20051;-92
2022/01/29 10:49:30;;;;;;;17.85;2.35;;;9.20;99.90;;;;;;4770608;30;20047;-93
2022/01/29 10:52:08;;;;;;;17.88;3.00;;;9.20;99.90;;;;;;4771668;30;20089;-90
2022/01/29 10:54:37;;;;;;;15.02;3.72;;;9.20;99.90;;;;;;4770859;30;20479;-90
2022/01/29 10:57:33;;;;;;;19.38;3.05;;;9.30;99.90;;;;;;4770794;30;20514;-93
2022/01/29 11:00:23;;;;;;;17.92;3.08;;;9.30;99.90;;;;;;4757350;30;20415;-93
2022/01/29 11:02:57;;;;;;;20.30;2.63;;;9.30;99.90;;;;;;4770377;30;20051;-93
2022/01/29 11:05:27;;;;;;;18.92;2.50;;;9.30;99.90;;;;;;4780367;30;20421;-93
2022/01/29 11:07:56;;;;;;;19.15;2.45;;;9.40;99.90;;;;;;4773160;30;20053;-93
2022/01/29 11:10:26;;;;;;;21.25;4.22;;;9.40;99.90;;;;;;4787673;29;20105;-93
2022/01/29 11:12:56;;;;;;;23.30;2.92;;;9.50;99.90;;;;;;4787722;29;20135;-91
2022/01/29 11:15:32;;;;;;;11.00;2.70;;;9.60;99.90;;;;;;4773727;30;20055;-91
2022/01/29 11:18:08;;;;;;;13.88;2.75;;;9.60;99.90;;;;;;4773139;30;20043;-91
2022/01/29 11:20:46;;;;;;;27.20;4.38;;;9.60;99.90;;;;;;4774688;30;20142;-91
2022/01/29 11:23:20;;;;;;;24.48;2.80;;;9.70;99.90;;;;;;4788250;29;20051;-91
2022/01/29 11:26:07;;;;;;;16.55;2.85;;;9.80;99.90;;;;;;4810321;29;20047;-92
2022/01/29 11:28:35;;;;;;;10.85;3.28;;;9.80;99.90;;;;;;4791576;29;20078;-90
2022/01/29 11:31:11;;;;;;;12.68;2.78;;;9.80;99.90;;;;;;4806210;29;20375;-91
2022/01/29 11:34:04;;;;;;;20.90;2.70;;;9.80;99.90;;;;;;4792622;29;20391;-90
2022/01/29 11:36:49;;;;;;;16.77;4.27;;;9.80;99.90;;;;;;4806849;29;20414;-91
2022/01/29 11:39:28;;;;;;;13.82;3.55;;;9.80;99.90;;;;;;4805969;29;20061;-92
2022/01/29 11:42:12;;;;;;;13.23;2.53;;;9.80;99.90;;;;;;4805258;29;20522;-91
2022/01/29 11:44:40;;;;;;;18.45;4.70;;;9.80;99.90;;;;;;4795737;29;20119;-91
2022/01/29 11:47:42;;;;;;;17.40;2.67;;;9.90;99.90;;;;;;4805243;29;20515;-92
2022/01/29 11:50:18;;;;;;;20.67;3.10;;;9.90;99.90;;;;;;4786875;29;20086;-90
2022/01/29 11:52:55;;;;;;;14.10;2.78;;;9.90;99.90;;;;;;4790401;29;20054;-91
2022/01/29 11:55:34;;;;;;;16.42;2.75;;;9.90;99.90;;;;;;4792850;29;20051;-90
2022/01/29 11:58:31;;;;;;;17.35;2.50;;;9.90;99.90;;;;;;4808522;29;20046;-91
2022/01/29 12:01:06;;;;;;;11.38;2.60;;;9.90;99.90;;;;;;4794636;29;20150;-91
2022/01/29 12:03:44;;;;;;;20.15;3.25;;;10.00;99.90;;;;;;4810321;29;20047;-92
2022/01/29 12:07:17;;;;;;;17.70;3.10;;;10.00;99.90;;;;;;4773693;30;20111;-91
2022/01/29 13:13:34;;;;;;;13.13;3.08;;;10.00;99.90;;;;;;2827235;24;20034;-88
2022/01/29 13:31:30;;;;;;;16.55;3.63;;;10.10;99.90;;;;;;5638654;24;20368;-92
2022/01/29 13:40:07;;;;;;;13.48;2.17;;;10.10;99.90;;;;;;4719809;30;20077;-95
2022/01/29 13:43:11;;;;;;;;;;;;;;;;;;;;;
2022/01/29 13:46:27;;;;;;;23.52;2.28;;;10.20;99.90;;;;;;4720775;30;20134;-91
2022/01/29 13:49:31;;;;;;;12.63;2.92;;;10.20;99.90;;;;;;4754578;30;20063;-93
2022/01/29 14:04:54;;;;;;;;;;;;;;;;;;;;;
2022/01/29 14:08:47;;;;;;;10.82;2.13;;;10.30;99.90;;;;;;4632581;30;20300;-92
2022/01/29 14:12:32;;;;;;;;;;;;;;;;;;;;;
2022/01/29 14:30:36;;;;;;;22.33;3.00;;;10.30;99.90;;;;;;4600221;31;20071;-92
2022/01/29 14:34:57;;;;;;;18.90;2.70;;;10.40;99.90;;;;;;4666802;30;20065;-94
2022/01/29 14:47:15;;;;;;;26.83;2.83;;;10.40;99.90;;;;;;4611604;30;20134;-93
2022/01/29 15:28:51;;;;;;;20.42;3.47;;;10.20;99.90;;;;;;4918600;24;21193;31
2022/01/29 15:32:07;;;;;;;21.98;3.97;;;10.20;99.90;;;;;;4704688;30;20058;-94
2022/01/29 15:35:50;;;;;;;29.65;3.80;;;10.20;99.90;;;;;;4701685;30;20054;-94
2022/01/29 15:51:39;;;;;;;24.33;3.00;;;10.10;99.90;;;;;;1359233;24;20326;-90
2022/01/29 15:54:19;;;;;;;25.00;4.90;;;10.00;99.90;;;;;;4750408;30;20059;-94
2022/01/29 15:56:56;;;;;;;28.50;4.32;;;9.90;99.90;;;;;;4751782;30;20122;-93
2022/01/29 15:59:53;;;;;;;35.22;4.78;;;9.90;99.90;;;;;;4752277;30;20059;-94
2022/01/29 16:03:10;;;;;;;20.40;4.28;;;10.00;99.90;;;;;;4754035;30;20063;-94
2022/01/29 16:06:13;;;;;;;27.55;5.47;;;9.90;99.90;;;;;;4740577;30;20056;-94
2022/01/29 16:08:55;;;;;;;;;;;9.90;99.90;;;;;;4740349;30;20139;-93
2022/01/29 16:12:02;;;;;;;22.90;3.15;;;9.80;99.90;;;;;;4753414;30;20056;-93
2022/01/29 16:18:21;;;;;;;26.35;5.18;;;9.70;99.90;;;;;;4753504;30;20511;-94
2022/01/29 16:21:03;;;;;;;35.70;5.05;;;9.70;99.90;;;;;;4739167;30;20079;-94
2022/01/29 16:24:32;;;;;;;;;;;;;;;;;;;;;
2022/01/29 16:27:47;;;;;;;36.33;7.38;;;9.60;99.90;;;;;;4741272;30;20147;-94
2022/01/29 16:35:13;;;;;;;33.75;5.45;;;9.60;99.90;;;;;;4682392;30;20131;-94
2022/01/29 16:38:25;;;;;;;38.63;6.10;;;9.50;99.90;;;;;;4709584;30;20055;-94
2022/01/29 16:45:16;;;;;;;25.20;5.07;;;9.40;99.90;;;;;;4720043;30;20451;-93
2022/01/29 16:48:42;;;;;;;37.78;6.00;;;9.40;99.90;;;;;;4760373;30;20075;-94
2022/01/29 16:51:41;;;;;;;27.30;5.28;;;9.40;99.90;;;;;;4734086;30;20053;-94
2022/01/29 16:54:31;;;;;;;42.17;8.07;;;9.40;99.90;;;;;;4756146;30;20040;-94
2022/01/29 16:57:03;;;;;;;31.42;4.85;;;9.40;99.90;;;;;;4756898;30;20120;-93
2022/01/29 16:59:32;;;;;;;27.95;5.28;;;9.30;99.90;;;;;;4741616;30;20080;-93
2022/01/29 17:02:16;;;;;;;25.67;4.85;;;9.30;99.90;;;;;;4740409;30;20048;-93
2022/01/29 17:05:00;;;;;;;35.95;4.15;;;9.20;99.90;;;;;;4742551;30;20059;-94
2022/01/29 17:07:35;;;;;;;40.83;4.57;;;9.20;99.90;;;;;;4755718;30;20052;-94
2022/01/29 17:10:15;;;;;;;;;;;9.20;99.90;;;;;;4740609;30;20048;-93
2022/01/29 17:13:51;;;;;;;24.95;5.15;;;9.20;99.90;;;;;;4756232;30;20012;-95
2022/01/29 17:16:46;;;;;;;25.17;6.60;;;9.20;99.90;;;;;;4753537;30;20048;-93
2022/01/29 17:22:08;;;;;;;35.72;8.75;;;9.10;99.90;;;;;;4718649;30;20088;-91
2022/01/29 17:24:51;;;;;;;52.55;13.90;;;9.10;99.90;;;;;;4703131;30;20498;-93
2022/01/29 17:28:15;;;;;;;42.72;15.38;;;9.00;99.90;;;;;;4694898;30;20053;-92
2022/01/29 17:30:48;;;;;;;38.90;8.63;;;9.10;99.90;;;;;;4677473;30;20057;-92
2022/01/29 17:33:46;;;;;;;30.90;8.27;;;9.00;99.90;;;;;;4700865;30;20112;-92
2022/01/29 17:36:21;;;;;;;30.27;7.07;;;9.00;99.90;;;;;;4687687;30;20514;-93
2022/01/29 17:39:24;;;;;;;34.15;8.52;;;9.10;99.90;;;;;;4687359;30;20110;-91
2022/01/29 17:41:53;;;;;;;36.95;8.10;;;9.00;99.90;;;;;;4700964;30;20046;-91